Airfield :
LOGIN :

Register | Disclaimer

   EN    FR    IT 

 










Legend :    VFR   Marginal VFR   IFR   Intensive IFR   Very Intensive IFR
Visi :
Ceiling :
>= 8 km
>= 3000ft
5 to 8 km
1000 to 3000 ft
1500m to 5 km
500 to 1000 ft
800 to 1500m
200 to 500 ft
< 800m
< 200 ft
Symbols :   Thunderstorms  Fog  Heavy snow  Heavy precipitations  Wind > 20 kt
SIGMETs :     Misc.  Thunderstorms  Icing  Turbulence  Mountain Waves  Volcanic Ashes






- Airport Elevation : 650 ft
- IATA code : ZJI


LSZL - Locarno

CURRENT METAR :
  • 151020Z AUTO 00000KT 9999NDV OVC062 04/04 Q1016 RMK

EXPIRED METARs :
  • 150950Z AUTO VRB02KT 9999NDV BKN061 03/03 Q1017 RMK
  • 150920Z AUTO VRB01KT 9999NDV BKN061 02/02 Q1016 RMK
  • 150850Z AUTO VRB01KT 9999NDV BKN063 01/01 Q1016 RMK
  • 150820Z AUTO VRB01KT 9999NDV NCD 01/01 Q1016 RMK

Expired Forecast.



MET'MAP, your aeronautical weather chart ! - Copyright ORBIFLY December 2007 - Disclaimer

ORBIFLY MET'MAP TEAM :

Programming & Development : Alexandra Zaïnal
Concept & original design : Baudouin d'Aumeries
Assistance for programming : Marc-Olivier Méhu
Technical & hardware support : Manuel Goepfert

Contact : metmap@orbifly.com




SOURCES & CREDITS :

   NOAA